sensor_id;sensor_type;location;lat;lon;timestamp;temperature;humidity
26254;DHT22;53339;51.378;0.094;2023-03-01T00:00:40;2.60;82.70
26254;DHT22;53339;51.378;0.094;2023-03-01T00:03:33;2.50;82.70
26254;DHT22;53339;51.378;0.094;2023-03-01T00:06:28;2.50;83.10
26254;DHT22;53339;51.378;0.094;2023-03-01T00:09:20;2.40;82.60
26254;DHT22;53339;51.378;0.094;2023-03-01T00:11:48;2.30;82.20
26254;DHT22;53339;51.378;0.094;2023-03-01T00:14:16;2.30;82.60
26254;DHT22;53339;51.378;0.094;2023-03-01T00:16:55;2.30;83.00
26254;DHT22;53339;51.378;0.094;2023-03-01T00:20:05;2.20;82.70
26254;DHT22;53339;51.378;0.094;2023-03-01T00:22:37;2.00;82.50
26254;DHT22;53339;51.378;0.094;2023-03-01T00:25:05;2.00;83.10
26254;DHT22;53339;51.378;0.094;2023-03-01T00:28:12;2.10;83.40
26254;DHT22;53339;51.378;0.094;2023-03-01T00:30:49;1.90;82.80
26254;DHT22;53339;51.378;0.094;2023-03-01T00:33:39;1.90;83.10
26254;DHT22;53339;51.378;0.094;2023-03-01T00:36:25;2.00;83.60
26254;DHT22;53339;51.378;0.094;2023-03-01T00:39:53;2.10;83.60
26254;DHT22;53339;51.378;0.094;2023-03-01T00:42:49;1.90;83.30
26254;DHT22;53339;51.378;0.094;2023-03-01T00:45:48;2.00;84.00
26254;DHT22;53339;51.378;0.094;2023-03-01T00:48:29;2.20;84.10
26254;DHT22;53339;51.378;0.094;2023-03-01T00:51:07;2.10;83.40
26254;DHT22;53339;51.378;0.094;2023-03-01T00:54:38;2.10;83.60
26254;DHT22;53339;51.378;0.094;2023-03-01T00:57:06;2.20;84.20
26254;DHT22;53339;51.378;0.094;2023-03-01T00:59:54;2.20;83.50
26254;DHT22;53339;51.378;0.094;2023-03-01T01:05:47;2.00;83.90
26254;DHT22;53339;51.378;0.094;2023-03-01T01:08:42;2.30;84.60
26254;DHT22;53339;51.378;0.094;2023-03-01T01:11:27;2.40;84.50
26254;DHT22;53339;51.378;0.094;2023-03-01T01:14:24;2.50;84.40
26254;DHT22;53339;51.378;0.094;2023-03-01T01:17:17;2.60;84.40
26254;DHT22;53339;51.378;0.094;2023-03-01T01:20:17;2.40;83.30
26254;DHT22;53339;51.378;0.094;2023-03-01T01:23:18;2.30;83.30
26254;DHT22;53339;51.378;0.094;2023-03-01T01:26:34;2.30;83.90
26254;DHT22;53339;51.378;0.094;2023-03-01T01:29:19;2.30;83.50
26254;DHT22;53339;51.378;0.094;2023-03-01T01:32:08;2.10;83.20
26254;DHT22;53339;51.378;0.094;2023-03-01T01:34:39;2.10;83.80
26254;DHT22;53339;51.378;0.094;2023-03-01T01:37:19;2.20;84.40
26254;DHT22;53339;51.378;0.094;2023-03-01T01:39:48;2.20;84.00
26254;DHT22;53339;51.378;0.094;2023-03-01T01:42:34;2.20;83.70
26254;DHT22;53339;51.378;0.094;2023-03-01T01:45:59;2.20;84.20
26254;DHT22;53339;51.378;0.094;2023-03-01T01:48:56;2.30;84.30
26254;DHT22;53339;51.378;0.094;2023-03-01T01:57:53;2.30;84.50
26254;DHT22;53339;51.378;0.094;2023-03-01T02:00:48;2.30;84.20
26254;DHT22;53339;51.378;0.094;2023-03-01T02:03:40;2.20;84.30
26254;DHT22;53339;51.378;0.094;2023-03-01T02:06:37;2.30;84.80
26254;DHT22;53339;51.378;0.094;2023-03-01T02:09:23;2.40;84.90
26254;DHT22;53339;51.378;0.094;2023-03-01T02:11:51;2.40;84.60
26254;DHT22;53339;51.378;0.094;2023-03-01T02:14:19;2.40;84.80
26254;DHT22;53339;51.378;0.094;2023-03-01T02:16:47;2.50;84.90
26254;DHT22;53339;51.378;0.094;2023-03-01T02:31:24;2.20;83.70
26254;DHT22;53339;51.378;0.094;2023-03-01T02:37:24;2.30;84.80
26254;DHT22;53339;51.378;0.094;2023-03-01T02:39:59;2.40;85.00
26254;DHT22;53339;51.378;0.094;2023-03-01T02:42:56;2.40;84.90
26254;DHT22;53339;51.378;0.094;2023-03-01T02:45:50;2.60;85.20
26254;DHT22;53339;51.378;0.094;2023-03-01T02:48:19;2.70;85.40
26254;DHT22;53339;51.378;0.094;2023-03-01T02:51:10;2.60;84.70
26254;DHT22;53339;51.378;0.094;2023-03-01T02:53:56;2.60;84.70
26254;DHT22;53339;51.378;0.094;2023-03-01T02:56:55;2.70;85.10
26254;DHT22;53339;51.378;0.094;2023-03-01T02:59:55;2.60;84.50
26254;DHT22;53339;51.378;0.094;2023-03-01T03:02:29;2.50;84.30
26254;DHT22;53339;51.378;0.094;2023-03-01T03:05:22;2.60;84.80
26254;DHT22;53339;51.378;0.094;2023-03-01T03:08:26;2.60;85.00
26254;DHT22;53339;51.378;0.094;2023-03-01T03:11:04;2.60;84.30
26254;DHT22;53339;51.378;0.094;2023-03-01T03:13:41;2.60;84.70
26254;DHT22;53339;51.378;0.094;2023-03-01T03:16:24;2.70;85.40
26254;DHT22;53339;51.378;0.094;2023-03-01T03:19:07;2.80;85.70
26254;DHT22;53339;51.378;0.094;2023-03-01T03:21:39;2.90;85.40
26254;DHT22;53339;51.378;0.094;2023-03-01T03:24:17;2.90;85.40
26254;DHT22;53339;51.378;0.094;2023-03-01T03:26:58;3.10;85.70
26254;DHT22;53339;51.378;0.094;2023-03-01T03:29:25;3.10;85.50
26254;DHT22;53339;51.378;0.094;2023-03-01T03:31:53;3.10;85.20
26254;DHT22;53339;51.378;0.094;2023-03-01T03:34:21;3.20;85.50
26254;DHT22;53339;51.378;0.094;2023-03-01T03:36:57;3.20;85.70
26254;DHT22;53339;51.378;0.094;2023-03-01T03:40:00;3.40;85.80
26254;DHT22;53339;51.378;0.094;2023-03-01T03:42:53;3.50;85.70
26254;DHT22;53339;51.378;0.094;2023-03-01T03:45:32;3.60;86.00
26254;DHT22;53339;51.378;0.094;2023-03-01T03:48:08;3.70;85.80
26254;DHT22;53339;51.378;0.094;2023-03-01T03:50:56;3.60;85.40
26254;DHT22;53339;51.378;0.094;2023-03-01T03:53:48;3.60;85.50
26254;DHT22;53339;51.378;0.094;2023-03-01T03:56:59;3.70;85.80
26254;DHT22;53339;51.378;0.094;2023-03-01T03:59:33;3.70;85.60
26254;DHT22;53339;51.378;0.094;2023-03-01T04:02:29;3.70;85.30
26254;DHT22;53339;51.378;0.094;2023-03-01T04:05:36;3.70;85.60
26254;DHT22;53339;51.378;0.094;2023-03-01T04:11:28;3.80;85.20
26254;DHT22;53339;51.378;0.094;2023-03-01T04:14:05;3.80;85.40
26254;DHT22;53339;51.378;0.094;2023-03-01T04:16:35;3.90;85.60
26254;DHT22;53339;51.378;0.094;2023-03-01T04:19:48;3.90;85.50
26254;DHT22;53339;51.378;0.094;2023-03-01T04:22:16;3.90;85.20
26254;DHT22;53339;51.378;0.094;2023-03-01T04:24:45;3.90;85.50
26254;DHT22;53339;51.378;0.094;2023-03-01T04:27:23;3.90;85.50
26254;DHT22;53339;51.378;0.094;2023-03-01T04:30:11;3.90;85.20
26254;DHT22;53339;51.378;0.094;2023-03-01T04:32:40;3.90;85.20
26254;DHT22;53339;51.378;0.094;2023-03-01T04:35:38;3.90;85.40
26254;DHT22;53339;51.378;0.094;2023-03-01T04:39:08;3.90;85.40
26254;DHT22;53339;51.378;0.094;2023-03-01T04:45:42;3.80;85.20
26254;DHT22;53339;51.378;0.094;2023-03-01T04:48:31;3.90;85.50
26254;DHT22;53339;51.378;0.094;2023-03-01T04:51:13;3.90;85.20
26254;DHT22;53339;51.378;0.094;2023-03-01T04:54:12;3.90;85.40
26254;DHT22;53339;51.378;0.094;2023-03-01T04:57:24;3.90;85.60
26254;DHT22;53339;51.378;0.094;2023-03-01T05:00:04;4.00;85.30
26254;DHT22;53339;51.378;0.094;2023-03-01T05:03:02;4.00;85.20
26254;DHT22;53339;51.378;0.094;2023-03-01T05:05:38;4.10;85.50
26254;DHT22;53339;51.378;0.094;2023-03-01T05:08:08;4.10;85.40
26254;DHT22;53339;51.378;0.094;2023-03-01T05:11:10;4.10;85.00
26254;DHT22;53339;51.378;0.094;2023-03-01T05:14:07;4.00;85.00
26254;DHT22;53339;51.378;0.094;2023-03-01T05:17:05;4.10;85.40
26254;DHT22;53339;51.378;0.094;2023-03-01T05:20:20;4.10;85.10
26254;DHT22;53339;51.378;0.094;2023-03-01T05:23:40;4.10;85.10
26254;DHT22;53339;51.378;0.094;2023-03-01T05:26:04;4.10;85.30
26254;DHT22;53339;51.378;0.094;2023-03-01T05:29:46;4.10;85.20
26254;DHT22;53339;51.378;0.094;2023-03-01T05:32:22;4.10;84.80
26254;DHT22;53339;51.378;0.094;2023-03-01T05:35:22;4.10;85.20
26254;DHT22;53339;51.378;0.094;2023-03-01T05:38:24;4.20;85.40
26254;DHT22;53339;51.378;0.094;2023-03-01T05:41:29;4.20;85.30
26254;DHT22;53339;51.378;0.094;2023-03-01T05:44:53;4.20;85.30
26254;DHT22;53339;51.378;0.094;2023-03-01T05:47:49;4.20;85.20
26254;DHT22;53339;51.378;0.094;2023-03-01T05:50:21;4.20;84.90
26254;DHT22;53339;51.378;0.094;2023-03-01T05:53:18;4.10;85.00
26254;DHT22;53339;51.378;0.094;2023-03-01T05:56:29;4.20;85.30
26254;DHT22;53339;51.378;0.094;2023-03-01T05:59:31;4.10;85.10
26254;DHT22;53339;51.378;0.094;2023-03-01T06:02:16;4.00;84.60
26254;DHT22;53339;51.378;0.094;2023-03-01T06:05:21;4.00;85.10
26254;DHT22;53339;51.378;0.094;2023-03-01T06:08:23;4.00;85.20
26254;DHT22;53339;51.378;0.094;2023-03-01T06:11:34;3.90;85.00
26254;DHT22;53339;51.378;0.094;2023-03-01T06:14:05;3.90;85.10
26254;DHT22;53339;51.378;0.094;2023-03-01T06:21:02;3.90;85.20
26254;DHT22;53339;51.378;0.094;2023-03-01T06:23:53;4.00;85.30
26254;DHT22;53339;51.378;0.094;2023-03-01T06:27:07;4.00;85.50
26254;DHT22;53339;51.378;0.094;2023-03-01T06:29:55;3.90;85.30
26254;DHT22;53339;51.378;0.094;2023-03-01T06:32:26;3.80;85.10
26254;DHT22;53339;51.378;0.094;2023-03-01T06:35:15;3.80;85.50
26254;DHT22;53339;51.378;0.094;2023-03-01T06:38:27;3.90;85.70
26254;DHT22;53339;51.378;0.094;2023-03-01T06:47:15;4.00;85.80
26254;DHT22;53339;51.378;0.094;2023-03-01T06:49:56;3.90;85.60
26254;DHT22;53339;51.378;0.094;2023-03-01T06:52:59;3.80;85.30
26254;DHT22;53339;51.378;0.094;2023-03-01T06:55:41;3.90;85.80
26254;DHT22;53339;51.378;0.094;2023-03-01T06:58:16;3.90;85.90
26254;DHT22;53339;51.378;0.094;2023-03-01T07:00:53;3.80;85.70
26254;DHT22;53339;51.378;0.094;2023-03-01T07:03:38;3.80;85.90
26254;DHT22;53339;51.378;0.094;2023-03-01T07:06:05;3.90;86.20
26254;DHT22;53339;51.378;0.094;2023-03-01T07:08:36;3.90;86.20
26254;DHT22;53339;51.378;0.094;2023-03-01T07:11:15;3.90;86.00
26254;DHT22;53339;51.378;0.094;2023-03-01T07:13:45;3.90;86.10
26254;DHT22;53339;51.378;0.094;2023-03-01T07:16:41;3.90;86.30
26254;DHT22;53339;51.378;0.094;2023-03-01T07:19:58;4.00;86.40
26254;DHT22;53339;51.378;0.094;2023-03-01T07:23:06;4.00;86.20
26254;DHT22;53339;51.378;0.094;2023-03-01T07:25:55;4.10;86.50
26254;DHT22;53339;51.378;0.094;2023-03-01T07:29:04;4.10;86.50
26254;DHT22;53339;51.378;0.094;2023-03-01T07:32:03;4.00;86.10
26254;DHT22;53339;51.378;0.094;2023-03-01T07:34:50;4.00;86.40
26254;DHT22;53339;51.378;0.094;2023-03-01T07:37:40;4.10;86.50
26254;DHT22;53339;51.378;0.094;2023-03-01T07:40:29;4.00;86.40
26254;DHT22;53339;51.378;0.094;2023-03-01T07:43:03;4.00;86.40
26254;DHT22;53339;51.378;0.094;2023-03-01T07:45:32;4.10;86.70
26254;DHT22;53339;51.378;0.094;2023-03-01T07:48:33;4.20;86.80
26254;DHT22;53339;51.378;0.094;2023-03-01T07:51:36;4.30;86.90
26254;DHT22;53339;51.378;0.094;2023-03-01T07:54:07;4.40;86.80
26254;DHT22;53339;51.378;0.094;2023-03-01T07:57:12;4.40;86.80
26254;DHT22;53339;51.378;0.094;2023-03-01T08:00:17;4.50;86.70
26254;DHT22;53339;51.378;0.094;2023-03-01T08:02:48;4.60;86.70
26254;DHT22;53339;51.378;0.094;2023-03-01T08:05:16;4.60;86.70
26254;DHT22;53339;51.378;0.094;2023-03-01T08:08:11;4.60;86.60
26254;DHT22;53339;51.378;0.094;2023-03-01T08:10:51;4.70;86.60
26254;DHT22;53339;51.378;0.094;2023-03-01T08:14:02;4.70;86.50
26254;DHT22;53339;51.378;0.094;2023-03-01T08:20:16;4.80;86.60
26254;DHT22;53339;51.378;0.094;2023-03-01T08:23:43;4.80;86.40
26254;DHT22;53339;51.378;0.094;2023-03-01T08:27:33;4.70;85.80
26254;DHT22;53339;51.378;0.094;2023-03-01T08:30:55;4.40;85.60
26254;DHT22;53339;51.378;0.094;2023-03-01T08:33:33;4.30;86.10
26254;DHT22;53339;51.378;0.094;2023-03-01T08:36:10;4.40;86.50
26254;DHT22;53339;51.378;0.094;2023-03-01T08:38:40;4.60;87.00
26254;DHT22;53339;51.378;0.094;2023-03-01T08:41:46;4.70;87.10
26254;DHT22;53339;51.378;0.094;2023-03-01T08:44:16;4.90;86.80
26254;DHT22;53339;51.378;0.094;2023-03-01T08:46:45;4.90;86.60
26254;DHT22;53339;51.378;0.094;2023-03-01T08:49:19;5.00;86.50
26254;DHT22;53339;51.378;0.094;2023-03-01T08:52:20;5.10;86.40
26254;DHT22;53339;51.378;0.094;2023-03-01T08:55:02;5.20;86.30
26254;DHT22;53339;51.378;0.094;2023-03-01T09:01:18;5.40;86.40
26254;DHT22;53339;51.378;0.094;2023-03-01T09:04:15;5.60;86.30
26254;DHT22;53339;51.378;0.094;2023-03-01T09:07:08;5.70;85.90
26254;DHT22;53339;51.378;0.094;2023-03-01T09:09:55;5.80;85.60
26254;DHT22;53339;51.378;0.094;2023-03-01T09:12:28;5.90;85.20
26254;DHT22;53339;51.378;0.094;2023-03-01T09:15:25;6.00;85.10
26254;DHT22;53339;51.378;0.094;2023-03-01T09:18:45;6.20;85.20
26254;DHT22;53339;51.378;0.094;2023-03-01T09:21:26;6.20;85.20
26254;DHT22;53339;51.378;0.094;2023-03-01T09:24:35;6.40;85.40
26254;DHT22;53339;51.378;0.094;2023-03-01T09:27:04;6.60;84.70
26254;DHT22;53339;51.378;0.094;2023-03-01T09:29:54;6.60;84.40
26254;DHT22;53339;51.378;0.094;2023-03-01T09:33:18;6.60;84.30
26254;DHT22;53339;51.378;0.094;2023-03-01T09:36:40;6.50;84.00
26254;DHT22;53339;51.378;0.094;2023-03-01T09:40:16;6.50;83.60
26254;DHT22;53339;51.378;0.094;2023-03-01T09:43:06;6.50;83.90
26254;DHT22;53339;51.378;0.094;2023-03-01T09:46:35;6.50;83.90
26254;DHT22;53339;51.378;0.094;2023-03-01T09:49:31;6.50;83.70
26254;DHT22;53339;51.378;0.094;2023-03-01T09:52:21;6.50;84.00
26254;DHT22;53339;51.378;0.094;2023-03-01T09:55:32;6.70;84.30
26254;DHT22;53339;51.378;0.094;2023-03-01T10:08:14;7.20;82.70
26254;DHT22;53339;51.378;0.094;2023-03-01T10:10:47;7.20;82.90
26254;DHT22;53339;51.378;0.094;2023-03-01T10:16:46;7.40;82.70
26254;DHT22;53339;51.378;0.094;2023-03-01T10:20:41;7.40;82.20
26254;DHT22;53339;51.378;0.094;2023-03-01T10:23:35;7.40;82.00
26254;DHT22;53339;51.378;0.094;2023-03-01T10:26:28;7.40;81.70
26254;DHT22;53339;51.378;0.094;2023-03-01T10:29:13;7.40;81.30
26254;DHT22;53339;51.378;0.094;2023-03-01T10:32:10;7.40;81.40
26254;DHT22;53339;51.378;0.094;2023-03-01T10:35:22;7.50;81.40
26254;DHT22;53339;51.378;0.094;2023-03-01T10:38:03;7.50;79.90
26254;DHT22;53339;51.378;0.094;2023-03-01T10:41:11;7.40;80.00
26254;DHT22;53339;51.378;0.094;2023-03-01T10:44:03;7.30;80.50
26254;DHT22;53339;51.378;0.094;2023-03-01T10:46:38;7.30;80.20
26254;DHT22;53339;51.378;0.094;2023-03-01T10:49:30;7.30;79.90
26254;DHT22;53339;51.378;0.094;2023-03-01T10:52:37;7.40;80.60
26254;DHT22;53339;51.378;0.094;2023-03-01T10:59:19;7.70;79.60
26254;DHT22;53339;51.378;0.094;2023-03-01T11:05:26;7.60;79.80
26254;DHT22;53339;51.378;0.094;2023-03-01T11:08:42;7.60;79.10
26254;DHT22;53339;51.378;0.094;2023-03-01T11:11:41;7.40;79.30
26254;DHT22;53339;51.378;0.094;2023-03-01T11:14:37;7.40;79.20
26254;DHT22;53339;51.378;0.094;2023-03-01T11:17:21;7.40;78.50
26254;DHT22;53339;51.378;0.094;2023-03-01T11:20:54;7.30;78.60
26254;DHT22;53339;51.378;0.094;2023-03-01T11:24:09;7.30;79.60
26254;DHT22;53339;51.378;0.094;2023-03-01T11:26:54;7.40;79.10
26254;DHT22;53339;51.378;0.094;2023-03-01T11:29:45;7.30;78.70
26254;DHT22;53339;51.378;0.094;2023-03-01T11:32:53;7.30;79.50
26254;DHT22;53339;51.378;0.094;2023-03-01T11:35:42;7.30;79.20
26254;DHT22;53339;51.378;0.094;2023-03-01T11:38:28;7.20;78.30
26254;DHT22;53339;51.378;0.094;2023-03-01T11:41:31;7.10;78.70
26254;DHT22;53339;51.378;0.094;2023-03-01T11:44:42;7.00;79.40
26254;DHT22;53339;51.378;0.094;2023-03-01T11:51:23;7.10;78.90
26254;DHT22;53339;51.378;0.094;2023-03-01T12:01:43;7.10;78.60
26254;DHT22;53339;51.378;0.094;2023-03-01T12:11:13;7.20;78.90
26254;DHT22;53339;51.378;0.094;2023-03-01T12:17:42;7.20;78.20
26254;DHT22;53339;51.378;0.094;2023-03-01T12:31:31;7.00;78.70
26254;DHT22;53339;51.378;0.094;2023-03-01T12:51:08;6.90;78.50
26254;DHT22;53339;51.378;0.094;2023-03-01T12:53:47;6.90;78.90
26254;DHT22;53339;51.378;0.094;2023-03-01T12:56:19;6.90;78.90
26254;DHT22;53339;51.378;0.094;2023-03-01T12:59:32;7.00;78.60
26254;DHT22;53339;51.378;0.094;2023-03-01T13:03:10;7.00;79.20
26254;DHT22;53339;51.378;0.094;2023-03-01T13:06:11;7.10;79.30
26254;DHT22;53339;51.378;0.094;2023-03-01T13:09:48;7.00;78.60
26254;DHT22;53339;51.378;0.094;2023-03-01T13:15:40;7.10;79.50
26254;DHT22;53339;51.378;0.094;2023-03-01T13:18:31;7.10;78.80
26254;DHT22;53339;51.378;0.094;2023-03-01T13:21:31;7.00;79.10
26254;DHT22;53339;51.378;0.094;2023-03-01T13:24:37;7.00;79.30
26254;DHT22;53339;51.378;0.094;2023-03-01T13:27:49;7.00;79.00
26254;DHT22;53339;51.378;0.094;2023-03-01T13:37:27;7.00;79.30
26254;DHT22;53339;51.378;0.094;2023-03-01T13:43:41;7.10;79.30
26254;DHT22;53339;51.378;0.094;2023-03-01T13:46:32;7.30;79.20
26254;DHT22;53339;51.378;0.094;2023-03-01T13:49:34;7.30;78.30
26254;DHT22;53339;51.378;0.094;2023-03-01T13:52:50;7.40;79.00
26254;DHT22;53339;51.378;0.094;2023-03-01T13:55:46;7.50;78.90
26254;DHT22;53339;51.378;0.094;2023-03-01T13:58:46;7.40;78.20
26254;DHT22;53339;51.378;0.094;2023-03-01T14:01:44;7.40;78.60
26254;DHT22;53339;51.378;0.094;2023-03-01T14:04:56;7.40;79.00
26254;DHT22;53339;51.378;0.094;2023-03-01T14:07:28;7.40;78.50
26254;DHT22;53339;51.378;0.094;2023-03-01T14:10:05;7.30;78.30
26254;DHT22;53339;51.378;0.094;2023-03-01T14:19:20;7.40;78.20
26254;DHT22;53339;51.378;0.094;2023-03-01T14:22:30;7.40;78.60
26254;DHT22;53339;51.378;0.094;2023-03-01T14:25:38;7.40;78.80
26254;DHT22;53339;51.378;0.094;2023-03-01T14:28:44;7.40;77.90
26254;DHT22;53339;51.378;0.094;2023-03-01T14:31:42;7.30;78.40
26254;DHT22;53339;51.378;0.094;2023-03-01T14:34:32;7.30;78.80
26254;DHT22;53339;51.378;0.094;2023-03-01T14:37:28;7.20;78.50
26254;DHT22;53339;51.378;0.094;2023-03-01T14:41:07;7.10;78.20
26254;DHT22;53339;51.378;0.094;2023-03-01T14:47:02;7.10;78.60
26254;DHT22;53339;51.378;0.094;2023-03-01T14:53:15;7.00;78.70
26254;DHT22;53339;51.378;0.094;2023-03-01T14:56:59;7.10;78.90
26254;DHT22;53339;51.378;0.094;2023-03-01T14:59:51;7.10;78.40
26254;DHT22;53339;51.378;0.094;2023-03-01T15:03:08;7.20;78.90
26254;DHT22;53339;51.378;0.094;2023-03-01T15:06:21;7.40;78.80
26254;DHT22;53339;51.378;0.094;2023-03-01T15:09:50;7.50;77.90
26254;DHT22;53339;51.378;0.094;2023-03-01T15:12:39;7.60;78.20
26254;DHT22;53339;51.378;0.094;2023-03-01T15:15:42;7.60;78.20
26254;DHT22;53339;51.378;0.094;2023-03-01T15:21:29;7.40;78.00
26254;DHT22;53339;51.378;0.094;2023-03-01T15:24:21;7.30;78.30
26254;DHT22;53339;51.378;0.094;2023-03-01T15:27:03;7.30;78.00
26254;DHT22;53339;51.378;0.094;2023-03-01T15:29:37;7.30;77.90
26254;DHT22;53339;51.378;0.094;2023-03-01T15:32:28;7.30;78.40
26254;DHT22;53339;51.378;0.094;2023-03-01T15:35:41;7.40;78.70
26254;DHT22;53339;51.378;0.094;2023-03-01T15:39:01;7.50;78.10
26254;DHT22;53339;51.378;0.094;2023-03-01T15:42:10;7.40;78.30
26254;DHT22;53339;51.378;0.094;2023-03-01T15:44:44;7.50;78.40
26254;DHT22;53339;51.378;0.094;2023-03-01T15:47:48;7.50;77.90
26254;DHT22;53339;51.378;0.094;2023-03-01T15:50:56;7.30;77.60
26254;DHT22;53339;51.378;0.094;2023-03-01T15:53:30;7.30;78.30
26254;DHT22;53339;51.378;0.094;2023-03-01T15:56:35;7.40;78.20
26254;DHT22;53339;51.378;0.094;2023-03-01T15:59:48;7.40;77.40
26254;DHT22;53339;51.378;0.094;2023-03-01T16:02:27;7.40;78.10
26254;DHT22;53339;51.378;0.094;2023-03-01T16:08:34;7.40;77.80
26254;DHT22;53339;51.378;0.094;2023-03-01T16:11:05;7.40;77.90
26254;DHT22;53339;51.378;0.094;2023-03-01T16:13:54;7.30;78.20
26254;DHT22;53339;51.378;0.094;2023-03-01T16:16:48;7.40;78.10
26254;DHT22;53339;51.378;0.094;2023-03-01T16:20:07;7.30;77.60
26254;DHT22;53339;51.378;0.094;2023-03-01T16:23:10;7.20;78.30
26254;DHT22;53339;51.378;0.094;2023-03-01T16:25:38;7.20;78.40
26254;DHT22;53339;51.378;0.094;2023-03-01T16:28:07;7.10;77.90
26254;DHT22;53339;51.378;0.094;2023-03-01T16:31:25;7.00;78.10
26254;DHT22;53339;51.378;0.094;2023-03-01T16:34:18;7.00;78.60
26254;DHT22;53339;51.378;0.094;2023-03-01T16:37:13;7.00;78.40
26254;DHT22;53339;51.378;0.094;2023-03-01T16:43:08;6.80;78.60
26254;DHT22;53339;51.378;0.094;2023-03-01T16:46:15;6.80;78.80
26254;DHT22;53339;51.378;0.094;2023-03-01T16:49:02;6.80;78.10
26254;DHT22;53339;51.378;0.094;2023-03-01T16:51:54;6.70;78.60
26254;DHT22;53339;51.378;0.094;2023-03-01T16:54:24;6.70;78.90
26254;DHT22;53339;51.378;0.094;2023-03-01T16:57:28;6.70;78.80
26254;DHT22;53339;51.378;0.094;2023-03-01T17:00:23;6.60;78.40
26254;DHT22;53339;51.378;0.094;2023-03-01T17:02:53;6.60;78.80
26254;DHT22;53339;51.378;0.094;2023-03-01T17:05:28;6.60;79.00
26254;DHT22;53339;51.378;0.094;2023-03-01T17:07:56;6.70;78.50
26254;DHT22;53339;51.378;0.094;2023-03-01T17:10:44;6.60;78.50
26254;DHT22;53339;51.378;0.094;2023-03-01T17:14:02;6.60;78.80
26254;DHT22;53339;51.378;0.094;2023-03-01T17:16:40;6.60;78.80
26254;DHT22;53339;51.378;0.094;2023-03-01T17:19:19;6.50;78.30
26254;DHT22;53339;51.378;0.094;2023-03-01T17:22:07;6.40;78.70
26254;DHT22;53339;51.378;0.094;2023-03-01T17:25:23;6.50;79.00
26254;DHT22;53339;51.378;0.094;2023-03-01T17:28:36;6.40;78.60
26254;DHT22;53339;51.378;0.094;2023-03-01T17:31:51;6.30;78.70
26254;DHT22;53339;51.378;0.094;2023-03-01T17:34:24;6.30;79.00
26254;DHT22;53339;51.378;0.094;2023-03-01T17:36:54;6.40;78.80
26254;DHT22;53339;51.378;0.094;2023-03-01T17:39:22;6.20;78.10
26254;DHT22;53339;51.378;0.094;2023-03-01T17:42:08;6.10;78.60
26254;DHT22;53339;51.378;0.094;2023-03-01T17:45:04;6.20;78.90
26254;DHT22;53339;51.378;0.094;2023-03-01T17:48:00;6.20;78.80
26254;DHT22;53339;51.378;0.094;2023-03-01T17:50:41;6.10;78.60
26254;DHT22;53339;51.378;0.094;2023-03-01T17:53:20;6.10;79.00
26254;DHT22;53339;51.378;0.094;2023-03-01T17:56:35;6.10;79.20
26254;DHT22;53339;51.378;0.094;2023-03-01T17:59:29;6.10;78.50
26254;DHT22;53339;51.378;0.094;2023-03-01T18:02:00;6.00;78.90
26254;DHT22;53339;51.378;0.094;2023-03-01T18:04:51;6.00;79.10
26254;DHT22;53339;51.378;0.094;2023-03-01T18:07:38;6.10;79.00
26254;DHT22;53339;51.378;0.094;2023-03-01T18:10:28;6.00;78.70
26254;DHT22;53339;51.378;0.094;2023-03-01T18:14:10;5.90;79.10
26254;DHT22;53339;51.378;0.094;2023-03-01T18:16:44;6.00;79.20
26254;DHT22;53339;51.378;0.094;2023-03-01T18:19:32;6.00;78.90
26254;DHT22;53339;51.378;0.094;2023-03-01T18:22:40;5.90;79.20
26254;DHT22;53339;51.378;0.094;2023-03-01T18:25:19;6.00;79.50
26254;DHT22;53339;51.378;0.094;2023-03-01T18:27:48;6.00;79.30
26254;DHT22;53339;51.378;0.094;2023-03-01T18:30:45;6.00;79.20
26254;DHT22;53339;51.378;0.094;2023-03-01T18:33:21;5.90;79.50
26254;DHT22;53339;51.378;0.094;2023-03-01T18:36:29;6.00;79.70
26254;DHT22;53339;51.378;0.094;2023-03-01T18:39:53;5.90;79.10
26254;DHT22;53339;51.378;0.094;2023-03-01T18:42:36;5.80;79.50
26254;DHT22;53339;51.378;0.094;2023-03-01T18:45:14;5.80;79.80
26254;DHT22;53339;51.378;0.094;2023-03-01T18:48:02;5.90;79.70
26254;DHT22;53339;51.378;0.094;2023-03-01T18:53:36;5.70;79.80
26254;DHT22;53339;51.378;0.094;2023-03-01T18:56:06;5.80;79.90
26254;DHT22;53339;51.378;0.094;2023-03-01T18:58:47;5.80;79.40
26254;DHT22;53339;51.378;0.094;2023-03-01T19:01:34;5.70;79.50
26254;DHT22;53339;51.378;0.094;2023-03-01T19:04:33;5.70;79.80
26254;DHT22;53339;51.378;0.094;2023-03-01T19:07:13;5.80;79.80
26254;DHT22;53339;51.378;0.094;2023-03-01T19:09:47;5.70;79.30
26254;DHT22;53339;51.378;0.094;2023-03-01T19:12:16;5.60;79.70
26254;DHT22;53339;51.378;0.094;2023-03-01T19:15:04;5.70;79.90
26254;DHT22;53339;51.378;0.094;2023-03-01T19:18:09;5.70;79.80
26254;DHT22;53339;51.378;0.094;2023-03-01T19:21:09;5.60;79.60
26254;DHT22;53339;51.378;0.094;2023-03-01T19:23:55;5.60;79.80
26254;DHT22;53339;51.378;0.094;2023-03-01T19:26:55;5.70;80.00
26254;DHT22;53339;51.378;0.094;2023-03-01T19:29:51;5.60;79.70
26254;DHT22;53339;51.378;0.094;2023-03-01T19:32:40;5.50;80.00
26254;DHT22;53339;51.378;0.094;2023-03-01T19:35:10;5.60;80.20
26254;DHT22;53339;51.378;0.094;2023-03-01T19:37:57;5.60;80.00
26254;DHT22;53339;51.378;0.094;2023-03-01T19:40:29;5.40;79.70
26254;DHT22;53339;51.378;0.094;2023-03-01T19:43:21;5.40;80.00
26254;DHT22;53339;51.378;0.094;2023-03-01T19:45:59;5.40;80.20
26254;DHT22;53339;51.378;0.094;2023-03-01T19:51:18;5.30;80.00
26254;DHT22;53339;51.378;0.094;2023-03-01T19:54:28;5.30;80.30
26254;DHT22;53339;51.378;0.094;2023-03-01T19:56:56;5.30;80.40
26254;DHT22;53339;51.378;0.094;2023-03-01T19:59:24;5.20;80.10
26254;DHT22;53339;51.378;0.094;2023-03-01T20:02:16;5.20;80.30
26254;DHT22;53339;51.378;0.094;2023-03-01T20:05:06;5.20;80.60
26254;DHT22;53339;51.378;0.094;2023-03-01T20:08:02;5.20;80.60
26254;DHT22;53339;51.378;0.094;2023-03-01T20:11:08;5.20;80.50
26254;DHT22;53339;51.378;0.094;2023-03-01T20:13:52;5.10;80.70
26254;DHT22;53339;51.378;0.094;2023-03-01T20:16:28;5.20;80.90
26254;DHT22;53339;51.378;0.094;2023-03-01T20:19:02;5.20;80.50
26254;DHT22;53339;51.378;0.094;2023-03-01T20:21:48;5.10;80.70
26254;DHT22;53339;51.378;0.094;2023-03-01T20:24:29;5.10;80.90
26254;DHT22;53339;51.378;0.094;2023-03-01T20:27:05;5.20;81.00
26254;DHT22;53339;51.378;0.094;2023-03-01T20:29:51;5.20;80.70
26254;DHT22;53339;51.378;0.094;2023-03-01T20:32:42;5.00;80.80
26254;DHT22;53339;51.378;0.094;2023-03-01T20:35:10;5.10;80.90
26254;DHT22;53339;51.378;0.094;2023-03-01T20:40:40;4.90;80.60
26254;DHT22;53339;51.378;0.094;2023-03-01T20:43:18;4.90;80.90
26254;DHT22;53339;51.378;0.094;2023-03-01T20:45:49;4.90;81.00
26254;DHT22;53339;51.378;0.094;2023-03-01T20:48:49;4.90;80.80
26254;DHT22;53339;51.378;0.094;2023-03-01T20:52:16;4.80;80.70
26254;DHT22;53339;51.378;0.094;2023-03-01T20:59:16;4.70;80.90
26254;DHT22;53339;51.378;0.094;2023-03-01T21:02:25;4.50;80.70
26254;DHT22;53339;51.378;0.094;2023-03-01T21:04:57;4.40;80.90
26254;DHT22;53339;51.378;0.094;2023-03-01T21:10:48;4.40;80.80